createdAt,value
2024-05-09T00:08:51.804Z,9.9
2024-05-09T00:18:52.030Z,9.7
2024-05-09T00:28:52.190Z,9.7
2024-05-09T00:38:52.389Z,9.6
2024-05-09T00:48:52.626Z,9.5
2024-05-09T01:08:52.983Z,9.3
2024-05-09T01:18:53.264Z,9.3
2024-05-09T01:28:53.395Z,9.4
2024-05-09T01:38:53.619Z,9.1
2024-05-09T01:48:53.825Z,9.1
2024-05-09T01:58:53.989Z,9
2024-05-09T02:08:54.187Z,8.9
2024-05-09T02:18:54.466Z,8.9
2024-05-09T02:28:54.623Z,8.7
2024-05-09T02:38:54.785Z,8.7
2024-05-09T02:48:55.056Z,8.7
2024-05-09T02:58:55.195Z,8.5
2024-05-09T03:08:55.409Z,8.2
2024-05-09T03:18:55.611Z,8
2024-05-09T03:28:55.783Z,7.9
2024-05-09T03:38:56.030Z,7.8
2024-05-09T03:58:56.404Z,7.6
2024-05-09T04:08:56.572Z,7.6
2024-05-09T04:18:56.858Z,7.5
2024-05-09T04:28:57.028Z,7.6
2024-05-09T04:38:57.185Z,7.9
2024-05-09T04:48:57.508Z,7.9
2024-05-09T05:18:58.071Z,8.5
2024-05-09T05:28:58.216Z,9
2024-05-09T05:38:58.422Z,9.4
2024-05-09T05:48:58.696Z,9.8
2024-05-09T05:58:58.840Z,10.3
2024-05-09T06:08:58.996Z,10.7
2024-05-09T06:18:59.262Z,11.1
2024-05-09T06:28:59.399Z,11.5
2024-05-09T06:38:59.613Z,11.9
2024-05-09T06:48:59.902Z,12.3
2024-05-09T06:59:00.053Z,12.7
2024-05-09T07:09:00.179Z,13.1
2024-05-09T07:19:00.510Z,13.7
2024-05-09T07:29:00.619Z,14.8
2024-05-09T07:39:00.757Z,15.1
2024-05-09T07:49:59.985Z,14.8
2024-05-09T07:59:01.127Z,15.1
2024-05-09T08:09:05.087Z,15.3
2024-05-09T08:19:01.587Z,15.8
2024-05-09T08:29:01.730Z,17
2024-05-09T08:39:01.913Z,17.4
2024-05-09T08:49:02.337Z,17.3
2024-05-09T08:59:02.296Z,17.7
2024-05-09T09:09:02.500Z,18.1
2024-05-09T09:19:02.833Z,18.7
2024-05-09T09:29:02.875Z,18.8
2024-05-09T09:39:03.071Z,19.3
2024-05-09T09:49:03.323Z,19.3
2024-05-09T09:59:03.473Z,19.5
2024-05-09T10:09:03.664Z,19.9
2024-05-09T10:19:04.043Z,20.9
2024-05-09T10:29:04.033Z,19.8
2024-05-09T10:49:06.348Z,20.5
2024-05-09T10:59:04.621Z,20.9
2024-05-09T11:09:04.807Z,21.6
2024-05-09T11:19:05.094Z,21.3
2024-05-09T11:29:05.196Z,20.9
2024-05-09T11:39:05.397Z,19.8
2024-05-09T11:59:05.825Z,20.3
2024-05-09T12:09:05.964Z,21
2024-05-09T12:19:06.239Z,22
2024-05-09T12:29:06.359Z,22.4
2024-05-09T12:39:06.611Z,22.5
2024-05-09T12:49:06.986Z,22.5
2024-05-09T12:59:06.925Z,22.2
2024-05-09T13:09:07.185Z,22.3
2024-05-09T13:19:07.387Z,22.1
2024-05-09T13:29:07.509Z,21.7
2024-05-09T13:39:07.701Z,21.8
2024-05-09T13:49:09.383Z,21.6
2024-05-09T13:59:08.092Z,21
2024-05-09T14:09:08.298Z,20.7
2024-05-09T14:19:08.497Z,21.5
2024-05-09T14:29:08.672Z,21.4
2024-05-09T14:39:08.854Z,21.7
2024-05-09T14:49:11.749Z,21.8
2024-05-09T14:59:09.237Z,21.3
2024-05-09T15:09:09.443Z,21.3
2024-05-09T15:19:09.781Z,21.3
2024-05-09T15:29:09.828Z,21.3
2024-05-09T15:39:10.009Z,20.9
2024-05-09T15:59:10.400Z,20.9
2024-05-09T16:19:10.859Z,20.6
2024-05-09T16:39:11.162Z,20.4
2024-05-09T16:59:11.554Z,20.3
2024-05-09T18:39:13.483Z,18.6
2024-05-09T19:59:15.084Z,15.9
2024-05-09T20:09:15.249Z,15.7
2024-05-09T20:19:15.531Z,15.5
2024-05-09T20:29:15.640Z,15.1
2024-05-09T20:39:15.819Z,14.5
2024-05-09T20:49:16.141Z,14.3
2024-05-09T20:59:16.212Z,14
2024-05-09T21:09:16.410Z,13.7
2024-05-09T21:19:16.717Z,13.5
2024-05-09T21:29:16.800Z,13.2
2024-05-09T21:39:17.000Z,12.8
2024-05-09T21:49:17.218Z,12.6
2024-05-09T21:59:17.419Z,12.4
2024-05-09T22:09:17.592Z,12.2
2024-05-09T22:19:17.811Z,11.9
2024-05-09T22:29:17.985Z,11.9
2024-05-09T22:49:18.474Z,11.9
2024-05-09T22:59:18.629Z,11.6
2024-05-09T23:09:18.803Z,11.4
2024-05-09T23:19:18.984Z,11.1
2024-05-09T23:29:19.214Z,11.1
2024-05-09T23:39:19.359Z,10.9
2024-05-09T23:49:19.588Z,10.9
2024-05-09T23:59:19.765Z,10.7
